Atlantic City, New Jersey
Current Conditions -  °F | °C
As of 2:54 PM on Wednesday 26 Nov 2014 (Local Time) from KACY Reporting Station
Moderate Rain Moderate Rain  
Wind Chill: 27°   Ceiling: 800
Heat Index: 38°   Visibility: 3mi
Dew Point: 37°   Wind: 24mph
Humidity: 97%   Direction: 10°N
Pressure: 29.72"   Gusts: 31mph
Location:  39.36°N, 74.43°W
Report Text: KACY 261954Z 01021G27KT 3SM RA BR BKN008 OVC048 03/03 A2972 RMK AO2 PK WND 01027/1952 SLP065 P0009 T00330028
Loading
Personal Weather Stations






























Interactive Weather Map New forecast layout! Learn more

10-Day Weather Forecast

Advertisements
Track Severe Weather on mobile